createdAt,value
2022-08-02T00:04:36.657Z,77.6
2022-08-02T00:10:32.306Z,78.7
2022-08-02T00:16:39.145Z,78.9
2022-08-02T00:22:30.262Z,78.7
2022-08-02T00:28:29.034Z,79.8
2022-08-02T00:34:33.976Z,78.4
2022-08-02T00:40:26.466Z,80
2022-08-02T00:46:18.712Z,79
2022-08-02T00:52:09.615Z,80.3
2022-08-02T00:58:03.073Z,79.2
2022-08-02T01:03:54.380Z,79.6
2022-08-02T01:09:47.320Z,80
2022-08-02T01:15:39.483Z,79.3
2022-08-02T01:21:30.327Z,80.1
2022-08-02T01:27:24.384Z,80.2
2022-08-02T01:33:15.279Z,81.3
2022-08-02T01:39:06.827Z,79.9
2022-08-02T01:45:11.929Z,81.1
2022-08-02T01:51:03.296Z,80.6
2022-08-02T01:56:54.287Z,81.8
2022-08-02T02:02:46.916Z,82.5
2022-08-02T02:08:40.274Z,83
2022-08-02T02:14:32.204Z,83.4
2022-08-02T02:20:24.529Z,83.2
2022-08-02T02:26:15.362Z,84.4
2022-08-02T02:32:23.666Z,83
2022-08-02T02:38:14.920Z,83.4
2022-08-02T02:44:06.342Z,82.2
2022-08-02T02:49:59.915Z,82.8
2022-08-02T02:56:04.250Z,82.2
2022-08-02T03:01:59.208Z,80.7
2022-08-02T03:07:52.075Z,82.5
2022-08-02T03:13:42.446Z,82.5
2022-08-02T03:19:34.953Z,82.8
2022-08-02T03:25:26.224Z,83.2
2022-08-02T03:31:17.370Z,82.9
2022-08-02T03:37:09.695Z,83.1
2022-08-02T03:43:02.586Z,83.4
2022-08-02T03:48:54.305Z,82.9
2022-08-02T03:54:47.879Z,83
2022-08-02T04:00:38.629Z,84.3
2022-08-02T04:06:30.914Z,84
2022-08-02T04:12:26.184Z,81.9
2022-08-02T04:18:17.068Z,83.3
2022-08-02T04:24:12.627Z,83.8
2022-08-02T04:30:12.878Z,83.9
2022-08-02T04:36:05.790Z,85.5
2022-08-02T04:41:59.412Z,85.7
2022-08-02T04:48:06.335Z,87.4
2022-08-02T04:54:09.793Z,87.1
2022-08-02T04:59:59.864Z,86.3
2022-08-02T05:05:52.476Z,83.8
2022-08-02T05:11:43.950Z,85
2022-08-02T05:17:49.918Z,85.4
2022-08-02T05:23:41.024Z,79.2
2022-08-02T05:29:32.488Z,78.5
2022-08-02T05:35:24.277Z,77.2
2022-08-02T05:41:16.033Z,74.4
2022-08-02T05:47:08.684Z,65.2
2022-08-02T05:53:00.017Z,51.1
2022-08-02T05:58:53.866Z,50.2
2022-08-02T06:04:47.471Z,46
2022-08-02T06:10:41.311Z,46.9
2022-08-02T06:16:44.063Z,49.7
2022-08-02T06:22:39.632Z,53
2022-08-02T07:08:07.504Z,66.9
2022-08-02T07:14:00.872Z,66.7
2022-08-02T07:19:52.978Z,66.7
2022-08-02T07:26:05.490Z,66.8
2022-08-02T07:32:00.239Z,65.6
2022-08-02T07:38:04.192Z,66.2
2022-08-02T07:43:59.126Z,66.2
2022-08-02T07:49:59.517Z,64.7
2022-08-02T07:56:32.920Z,64.7
2022-08-02T08:02:30.688Z,64.2
2022-08-02T08:08:29.216Z,64.1
2022-08-02T08:14:53.164Z,63.6
2022-08-02T08:27:12.604Z,62.1
2022-08-02T08:39:31.174Z,61.1
2022-08-02T08:45:58.242Z,60.1
2022-08-02T08:52:17.753Z,61.1
2022-08-02T08:58:28.746Z,58.2
2022-08-02T09:04:58.118Z,58.2
2022-08-02T09:11:04.099Z,56.8
2022-08-02T09:17:04.348Z,54.9
2022-08-02T09:23:05.203Z,55.4
2022-08-02T09:29:02.037Z,54
2022-08-02T09:35:06.717Z,53.5
2022-08-02T09:47:40.621Z,51.8
2022-08-02T09:54:12.313Z,49.8
2022-08-02T10:07:45.833Z,49
2022-08-02T10:20:05.194Z,48.6
2022-08-02T10:26:38.434Z,47.5
2022-08-02T10:47:51.953Z,45.1
2022-08-02T11:56:30.496Z,41.1
2022-08-02T12:30:01.061Z,39.5
2022-08-02T12:35:51.525Z,40.3
2022-08-02T12:41:57.133Z,40.8
2022-08-02T12:47:46.946Z,39.3
2022-08-02T12:53:41.110Z,40
2022-08-02T12:59:45.613Z,40.7
2022-08-02T13:06:07.813Z,39.3
2022-08-02T13:12:35.721Z,39.7
2022-08-02T13:18:32.593Z,39.1
2022-08-02T13:24:57.463Z,39.4
2022-08-02T13:30:45.454Z,39.5
2022-08-02T13:36:38.200Z,38.7
2022-08-02T13:42:30.037Z,38.2
2022-08-02T13:48:21.959Z,38.5
2022-08-02T13:54:13.380Z,39.2
2022-08-02T14:00:14.345Z,39.4
2022-08-02T14:06:21.592Z,38.3
2022-08-02T14:12:15.152Z,39.5
2022-08-02T14:18:09.275Z,39.6
2022-08-02T14:24:01.084Z,38.2
2022-08-02T14:30:02.315Z,38.5
2022-08-02T14:35:58.995Z,38.6
2022-08-02T14:42:03.349Z,38.4
2022-08-02T14:47:55.275Z,38.3
2022-08-02T14:54:04.395Z,37.9
2022-08-02T15:00:03.181Z,38.1
2022-08-02T15:05:55.596Z,38.3
2022-08-02T15:11:50.180Z,37.1
2022-08-02T15:17:55.035Z,38.4
2022-08-02T15:23:47.563Z,38
2022-08-02T15:29:38.957Z,38.1
2022-08-02T15:35:30.319Z,38.7
2022-08-02T15:41:21.524Z,38.5
2022-08-02T15:47:13.941Z,38.7
2022-08-02T15:53:05.282Z,38.8
2022-08-02T15:59:00.311Z,38.7
2022-08-02T16:04:51.001Z,38.7
2022-08-02T16:10:42.477Z,39.2
2022-08-02T16:16:33.944Z,39.4
2022-08-02T16:22:24.088Z,38.8
2022-08-02T16:28:14.359Z,38.7
2022-08-02T16:34:04.685Z,39.2
2022-08-02T16:40:00.108Z,39.2
2022-08-02T16:45:52.153Z,38.7
2022-08-02T16:51:43.116Z,39.1
2022-08-02T16:57:45.093Z,39
2022-08-02T17:03:58.460Z,39.8
2022-08-02T17:10:06.622Z,39.3
2022-08-02T17:16:26.806Z,39.7
2022-08-02T17:22:32.658Z,39.9
2022-08-02T17:29:32.783Z,39.5
2022-08-02T17:36:15.218Z,39.8
2022-08-02T17:42:34.858Z,39.8
2022-08-02T17:49:12.778Z,39.9
2022-08-02T17:55:12.611Z,40.1
2022-08-02T18:01:26.049Z,40.1
2022-08-02T18:07:56.793Z,40
2022-08-02T18:13:56.697Z,40.7
2022-08-02T18:20:08.780Z,40.8
2022-08-02T18:26:01.053Z,42.4
2022-08-02T18:31:53.799Z,43.7
2022-08-02T18:38:03.485Z,44
2022-08-02T18:44:01.780Z,45
2022-08-02T18:49:58.244Z,46.7
2022-08-02T18:56:04.744Z,47.2
2022-08-02T19:02:03.810Z,48.1
2022-08-02T19:07:57.966Z,48.4
2022-08-02T19:13:51.423Z,50.3
2022-08-02T19:20:21.134Z,52.6
2022-08-02T19:26:17.106Z,53.7
2022-08-02T19:32:41.101Z,52.9
2022-08-02T19:39:28.715Z,53
2022-08-02T21:04:45.794Z,60.1
2022-08-02T21:11:15.830Z,59.5
2022-08-02T21:17:23.348Z,60.2
2022-08-02T21:23:57.375Z,60.2
2022-08-02T21:29:51.178Z,60.7
2022-08-02T21:35:43.570Z,61
2022-08-02T21:41:48.691Z,61.1
2022-08-02T21:47:39.175Z,61.3
2022-08-02T21:53:43.476Z,61.4
2022-08-02T22:00:08.706Z,62.5
2022-08-02T22:05:59.234Z,63.8
2022-08-02T22:11:52.613Z,63.8
2022-08-02T22:18:01.487Z,64.3
2022-08-02T22:23:59.538Z,63.8
2022-08-02T22:29:59.607Z,65.2
2022-08-02T22:35:54.230Z,65.9
2022-08-02T22:42:07.437Z,66.3
2022-08-02T22:48:01.008Z,65.9
2022-08-02T22:53:52.196Z,66.5
2022-08-02T22:59:43.593Z,65.9
2022-08-02T23:05:37.688Z,65.7
2022-08-02T23:11:30.105Z,67.1
2022-08-02T23:17:19.618Z,66.4
2022-08-02T23:23:13.402Z,67.3
2022-08-02T23:29:04.387Z,67.7
2022-08-02T23:34:54.603Z,67.7
2022-08-02T23:40:43.671Z,69.9
2022-08-02T23:46:33.354Z,68.9
2022-08-02T23:52:23.110Z,68.5
2022-08-02T23:58:13.512Z,70
